sensor_id;sensor_type;location;lat;lon;timestamp;temperature;humidity
32865;DHT22;19219;44.500;11.188;2023-08-07T00:00:22;18.70;99.90
32865;DHT22;19219;44.500;11.188;2023-08-07T00:02:48;18.70;99.90
32865;DHT22;19219;44.500;11.188;2023-08-07T00:05:14;18.70;99.90
32865;DHT22;19219;44.500;11.188;2023-08-07T00:07:42;18.80;99.90
32865;DHT22;19219;44.500;11.188;2023-08-07T00:10:08;18.80;99.90
32865;DHT22;19219;44.500;11.188;2023-08-07T00:12:34;18.90;99.90
32865;DHT22;19219;44.500;11.188;2023-08-07T00:15:00;18.90;99.90
32865;DHT22;19219;44.500;11.188;2023-08-07T00:17:26;19.00;99.90
32865;DHT22;19219;44.500;11.188;2023-08-07T00:19:52;19.00;99.90
32865;DHT22;19219;44.500;11.188;2023-08-07T00:22:17;19.00;99.90
32865;DHT22;19219;44.500;11.188;2023-08-07T00:24:43;19.00;99.90
32865;DHT22;19219;44.500;11.188;2023-08-07T00:27:09;19.00;99.90
32865;DHT22;19219;44.500;11.188;2023-08-07T00:29:38;18.90;99.90
32865;DHT22;19219;44.500;11.188;2023-08-07T00:32:04;18.80;99.90
32865;DHT22;19219;44.500;11.188;2023-08-07T00:34:30;18.80;99.90
32865;DHT22;19219;44.500;11.188;2023-08-07T00:36:56;18.80;99.90
32865;DHT22;19219;44.500;11.188;2023-08-07T00:39:22;18.70;99.90
32865;DHT22;19219;44.500;11.188;2023-08-07T00:41:48;18.70;99.90
32865;DHT22;19219;44.500;11.188;2023-08-07T00:44:13;18.70;99.90
32865;DHT22;19219;44.500;11.188;2023-08-07T00:46:39;18.70;99.90
32865;DHT22;19219;44.500;11.188;2023-08-07T00:49:06;18.60;99.90
32865;DHT22;19219;44.500;11.188;2023-08-07T00:51:32;18.50;99.90
32865;DHT22;19219;44.500;11.188;2023-08-07T00:53:59;18.50;99.90
32865;DHT22;19219;44.500;11.188;2023-08-07T00:56:26;18.50;99.90
32865;DHT22;19219;44.500;11.188;2023-08-07T00:58:53;18.30;99.90
32865;DHT22;19219;44.500;11.188;2023-08-07T01:01:19;18.30;99.90
32865;DHT22;19219;44.500;11.188;2023-08-07T01:03:44;18.30;99.90
32865;DHT22;19219;44.500;11.188;2023-08-07T01:06:10;18.20;99.90
32865;DHT22;19219;44.500;11.188;2023-08-07T01:08:36;18.10;99.90
32865;DHT22;19219;44.500;11.188;2023-08-07T01:16:22;17.90;99.90
32865;DHT22;19219;44.500;11.188;2023-08-07T01:18:51;17.90;99.90
32865;DHT22;19219;44.500;11.188;2023-08-07T01:21:18;18.00;99.90
32865;DHT22;19219;44.500;11.188;2023-08-07T01:23:46;18.20;99.90
32865;DHT22;19219;44.500;11.188;2023-08-07T01:26:12;18.20;99.90
32865;DHT22;19219;44.500;11.188;2023-08-07T01:28:45;18.30;99.90
32865;DHT22;19219;44.500;11.188;2023-08-07T01:31:14;18.30;99.90
32865;DHT22;19219;44.500;11.188;2023-08-07T01:34:04;18.40;99.90
32865;DHT22;19219;44.500;11.188;2023-08-07T01:36:30;18.50;99.90
32865;DHT22;19219;44.500;11.188;2023-08-07T01:38:57;18.50;99.90
32865;DHT22;19219;44.500;11.188;2023-08-07T01:41:24;18.50;99.90
32865;DHT22;19219;44.500;11.188;2023-08-07T01:43:51;18.50;99.90
32865;DHT22;19219;44.500;11.188;2023-08-07T01:46:18;18.60;99.90
32865;DHT22;19219;44.500;11.188;2023-08-07T01:48:44;18.60;99.90
32865;DHT22;19219;44.500;11.188;2023-08-07T01:51:09;18.50;99.90
32865;DHT22;19219;44.500;11.188;2023-08-07T01:53:35;18.50;99.90
32865;DHT22;19219;44.500;11.188;2023-08-07T01:56:01;18.50;99.90
32865;DHT22;19219;44.500;11.188;2023-08-07T01:58:26;18.50;99.90
32865;DHT22;19219;44.500;11.188;2023-08-07T02:00:53;18.60;99.90
32865;DHT22;19219;44.500;11.188;2023-08-07T02:03:19;18.70;99.90
32865;DHT22;19219;44.500;11.188;2023-08-07T02:05:46;18.70;99.90
32865;DHT22;19219;44.500;11.188;2023-08-07T02:08:12;18.70;99.90
32865;DHT22;19219;44.500;11.188;2023-08-07T02:10:37;18.70;99.90
32865;DHT22;19219;44.500;11.188;2023-08-07T02:13:03;18.70;99.90
32865;DHT22;19219;44.500;11.188;2023-08-07T02:15:29;18.70;99.90
32865;DHT22;19219;44.500;11.188;2023-08-07T02:17:55;18.70;99.90
32865;DHT22;19219;44.500;11.188;2023-08-07T02:20:20;18.60;99.90
32865;DHT22;19219;44.500;11.188;2023-08-07T02:22:46;18.70;99.90
32865;DHT22;19219;44.500;11.188;2023-08-07T02:25:12;18.70;99.90
32865;DHT22;19219;44.500;11.188;2023-08-07T02:27:38;18.70;99.90
32865;DHT22;19219;44.500;11.188;2023-08-07T02:30:04;18.60;99.90
32865;DHT22;19219;44.500;11.188;2023-08-07T02:32:31;18.50;99.90
32865;DHT22;19219;44.500;11.188;2023-08-07T02:34:56;18.30;99.90
32865;DHT22;19219;44.500;11.188;2023-08-07T02:37:22;18.10;99.90
32865;DHT22;19219;44.500;11.188;2023-08-07T02:39:48;18.00;99.90
32865;DHT22;19219;44.500;11.188;2023-08-07T02:42:13;17.90;99.90
32865;DHT22;19219;44.500;11.188;2023-08-07T02:44:39;17.90;99.90
32865;DHT22;19219;44.500;11.188;2023-08-07T02:47:06;17.90;99.90
32865;DHT22;19219;44.500;11.188;2023-08-07T02:49:31;17.80;99.90
32865;DHT22;19219;44.500;11.188;2023-08-07T02:51:57;17.70;99.90
32865;DHT22;19219;44.500;11.188;2023-08-07T02:54:23;17.70;99.90
32865;DHT22;19219;44.500;11.188;2023-08-07T02:56:48;17.70;99.90
32865;DHT22;19219;44.500;11.188;2023-08-07T02:59:15;17.60;99.90
32865;DHT22;19219;44.500;11.188;2023-08-07T03:01:41;17.60;99.90
32865;DHT22;19219;44.500;11.188;2023-08-07T03:04:07;17.60;99.90
32865;DHT22;19219;44.500;11.188;2023-08-07T03:06:33;17.60;99.90
32865;DHT22;19219;44.500;11.188;2023-08-07T03:08:59;17.60;99.90
32865;DHT22;19219;44.500;11.188;2023-08-07T03:11:25;17.70;99.90
32865;DHT22;19219;44.500;11.188;2023-08-07T03:13:51;17.70;99.90
32865;DHT22;19219;44.500;11.188;2023-08-07T03:16:16;17.70;99.90
32865;DHT22;19219;44.500;11.188;2023-08-07T03:18:42;17.70;99.90
32865;DHT22;19219;44.500;11.188;2023-08-07T03:21:08;17.70;99.90
32865;DHT22;19219;44.500;11.188;2023-08-07T03:23:33;17.70;99.90
32865;DHT22;19219;44.500;11.188;2023-08-07T03:26:11;17.60;99.90
32865;DHT22;19219;44.500;11.188;2023-08-07T03:28:37;17.60;99.90
32865;DHT22;19219;44.500;11.188;2023-08-07T03:31:03;17.50;99.90
32865;DHT22;19219;44.500;11.188;2023-08-07T03:33:29;17.50;99.90
32865;DHT22;19219;44.500;11.188;2023-08-07T03:35:55;17.50;99.90
32865;DHT22;19219;44.500;11.188;2023-08-07T03:38:21;17.50;99.90
32865;DHT22;19219;44.500;11.188;2023-08-07T03:40:46;17.50;99.90
32865;DHT22;19219;44.500;11.188;2023-08-07T03:43:12;17.40;99.90
32865;DHT22;19219;44.500;11.188;2023-08-07T03:45:38;17.30;99.90
32865;DHT22;19219;44.500;11.188;2023-08-07T03:48:04;17.30;99.90
32865;DHT22;19219;44.500;11.188;2023-08-07T03:50:30;17.20;99.90
32865;DHT22;19219;44.500;11.188;2023-08-07T03:52:56;17.30;99.90
32865;DHT22;19219;44.500;11.188;2023-08-07T03:55:22;17.40;99.90
32865;DHT22;19219;44.500;11.188;2023-08-07T03:57:47;17.40;99.90
32865;DHT22;19219;44.500;11.188;2023-08-07T04:00:13;17.40;99.90
32865;DHT22;19219;44.500;11.188;2023-08-07T04:02:39;17.30;99.90
32865;DHT22;19219;44.500;11.188;2023-08-07T04:05:06;17.30;99.90
32865;DHT22;19219;44.500;11.188;2023-08-07T04:07:31;17.20;99.90
32865;DHT22;19219;44.500;11.188;2023-08-07T04:09:57;17.20;99.90
32865;DHT22;19219;44.500;11.188;2023-08-07T04:12:23;17.20;99.90
32865;DHT22;19219;44.500;11.188;2023-08-07T04:14:48;17.20;99.90
32865;DHT22;19219;44.500;11.188;2023-08-07T04:17:14;17.20;99.90
32865;DHT22;19219;44.500;11.188;2023-08-07T04:19:40;17.20;99.90
32865;DHT22;19219;44.500;11.188;2023-08-07T04:22:05;17.20;99.90
32865;DHT22;19219;44.500;11.188;2023-08-07T04:24:31;17.20;99.90
32865;DHT22;19219;44.500;11.188;2023-08-07T04:26:57;17.10;99.90
32865;DHT22;19219;44.500;11.188;2023-08-07T04:29:23;17.00;99.90
32865;DHT22;19219;44.500;11.188;2023-08-07T04:31:49;16.90;99.90
32865;DHT22;19219;44.500;11.188;2023-08-07T04:34:15;16.80;99.90
32865;DHT22;19219;44.500;11.188;2023-08-07T04:36:40;16.70;99.90
32865;DHT22;19219;44.500;11.188;2023-08-07T04:39:06;16.60;99.90
32865;DHT22;19219;44.500;11.188;2023-08-07T04:41:32;16.60;99.90
32865;DHT22;19219;44.500;11.188;2023-08-07T04:43:58;16.70;99.90
32865;DHT22;19219;44.500;11.188;2023-08-07T04:46:24;16.70;99.90
32865;DHT22;19219;44.500;11.188;2023-08-07T04:48:49;16.70;99.90
32865;DHT22;19219;44.500;11.188;2023-08-07T04:51:15;16.80;99.90
32865;DHT22;19219;44.500;11.188;2023-08-07T04:53:41;16.80;99.90
32865;DHT22;19219;44.500;11.188;2023-08-07T04:56:06;16.80;99.90
32865;DHT22;19219;44.500;11.188;2023-08-07T04:58:32;16.80;99.90
32865;DHT22;19219;44.500;11.188;2023-08-07T05:00:59;16.80;99.90
32865;DHT22;19219;44.500;11.188;2023-08-07T05:03:25;16.90;99.90
32865;DHT22;19219;44.500;11.188;2023-08-07T05:05:58;16.90;99.90
32865;DHT22;19219;44.500;11.188;2023-08-07T05:08:24;16.90;99.90
32865;DHT22;19219;44.500;11.188;2023-08-07T05:10:49;17.00;99.90
32865;DHT22;19219;44.500;11.188;2023-08-07T05:13:15;17.00;99.90
32865;DHT22;19219;44.500;11.188;2023-08-07T05:15:43;17.00;99.90
32865;DHT22;19219;44.500;11.188;2023-08-07T05:18:09;17.10;99.90
32865;DHT22;19219;44.500;11.188;2023-08-07T05:20:34;17.20;99.90
32865;DHT22;19219;44.500;11.188;2023-08-07T05:23:00;17.30;99.90
32865;DHT22;19219;44.500;11.188;2023-08-07T05:25:26;17.50;99.90
32865;DHT22;19219;44.500;11.188;2023-08-07T05:27:51;17.60;99.90
32865;DHT22;19219;44.500;11.188;2023-08-07T05:30:17;17.70;99.90
32865;DHT22;19219;44.500;11.188;2023-08-07T05:32:43;17.90;99.90
32865;DHT22;19219;44.500;11.188;2023-08-07T05:35:09;18.00;99.90
32865;DHT22;19219;44.500;11.188;2023-08-07T05:37:34;18.10;99.90
32865;DHT22;19219;44.500;11.188;2023-08-07T05:40:00;18.20;99.90
32865;DHT22;19219;44.500;11.188;2023-08-07T05:42:27;18.30;99.90
32865;DHT22;19219;44.500;11.188;2023-08-07T05:44:53;18.40;99.90
32865;DHT22;19219;44.500;11.188;2023-08-07T05:47:18;18.50;99.90
32865;DHT22;19219;44.500;11.188;2023-08-07T05:49:44;18.60;99.90
32865;DHT22;19219;44.500;11.188;2023-08-07T05:52:10;18.80;99.90
32865;DHT22;19219;44.500;11.188;2023-08-07T05:54:35;18.90;99.90
32865;DHT22;19219;44.500;11.188;2023-08-07T05:57:01;19.10;99.90
32865;DHT22;19219;44.500;11.188;2023-08-07T05:59:27;19.20;99.90
32865;DHT22;19219;44.500;11.188;2023-08-07T06:01:53;19.30;99.90
32865;DHT22;19219;44.500;11.188;2023-08-07T06:04:20;19.40;99.90
32865;DHT22;19219;44.500;11.188;2023-08-07T06:06:47;19.50;99.90
32865;DHT22;19219;44.500;11.188;2023-08-07T06:09:13;19.60;99.90
32865;DHT22;19219;44.500;11.188;2023-08-07T06:11:41;19.60;99.90
32865;DHT22;19219;44.500;11.188;2023-08-07T06:14:06;19.70;99.90
32865;DHT22;19219;44.500;11.188;2023-08-07T06:16:32;19.70;99.90
32865;DHT22;19219;44.500;11.188;2023-08-07T06:18:58;19.90;99.90
32865;DHT22;19219;44.500;11.188;2023-08-07T06:21:24;19.90;99.90
32865;DHT22;19219;44.500;11.188;2023-08-07T06:23:50;19.80;99.90
32865;DHT22;19219;44.500;11.188;2023-08-07T06:26:16;20.30;99.90
32865;DHT22;19219;44.500;11.188;2023-08-07T06:28:42;20.60;99.90
32865;DHT22;19219;44.500;11.188;2023-08-07T06:31:09;21.20;99.90
32865;DHT22;19219;44.500;11.188;2023-08-07T06:33:35;21.90;99.90
32865;DHT22;19219;44.500;11.188;2023-08-07T06:36:02;22.50;99.90
32865;DHT22;19219;44.500;11.188;2023-08-07T06:38:28;23.20;99.90
32865;DHT22;19219;44.500;11.188;2023-08-07T06:40:54;23.80;99.90
32865;DHT22;19219;44.500;11.188;2023-08-07T06:43:19;24.30;99.20
32865;DHT22;19219;44.500;11.188;2023-08-07T06:45:55;24.60;96.90
32865;DHT22;19219;44.500;11.188;2023-08-07T06:48:22;25.10;95.70
32865;DHT22;19219;44.500;11.188;2023-08-07T06:50:48;25.60;95.50
32865;DHT22;19219;44.500;11.188;2023-08-07T06:53:14;25.80;93.70
32865;DHT22;19219;44.500;11.188;2023-08-07T06:55:43;26.20;93.30
32865;DHT22;19219;44.500;11.188;2023-08-07T06:58:09;26.40;91.80
32865;DHT22;19219;44.500;11.188;2023-08-07T07:00:35;26.80;91.80
32865;DHT22;19219;44.500;11.188;2023-08-07T07:03:02;26.90;91.30
32865;DHT22;19219;44.500;11.188;2023-08-07T07:05:28;26.90;88.50
32865;DHT22;19219;44.500;11.188;2023-08-07T07:07:55;27.20;90.10
32865;DHT22;19219;44.500;11.188;2023-08-07T07:10:21;27.30;87.40
32865;DHT22;19219;44.500;11.188;2023-08-07T07:12:47;27.40;85.70
32865;DHT22;19219;44.500;11.188;2023-08-07T07:15:13;27.60;86.20
32865;DHT22;19219;44.500;11.188;2023-08-07T07:17:39;27.70;86.30
32865;DHT22;19219;44.500;11.188;2023-08-07T07:20:05;27.70;74.00
32865;DHT22;19219;44.500;11.188;2023-08-07T07:22:31;27.60;74.80
32865;DHT22;19219;44.500;11.188;2023-08-07T07:24:57;27.50;78.30
32865;DHT22;19219;44.500;11.188;2023-08-07T07:27:23;27.80;80.40
32865;DHT22;19219;44.500;11.188;2023-08-07T07:29:51;27.80;75.50
32865;DHT22;19219;44.500;11.188;2023-08-07T07:32:17;27.70;73.50
32865;DHT22;19219;44.500;11.188;2023-08-07T07:34:43;27.60;75.60
32865;DHT22;19219;44.500;11.188;2023-08-07T07:37:10;27.70;75.10
32865;DHT22;19219;44.500;11.188;2023-08-07T07:39:36;27.60;73.60
32865;DHT22;19219;44.500;11.188;2023-08-07T07:42:02;27.70;72.20
32865;DHT22;19219;44.500;11.188;2023-08-07T07:44:29;27.60;70.40
32865;DHT22;19219;44.500;11.188;2023-08-07T07:46:55;27.60;69.50
32865;DHT22;19219;44.500;11.188;2023-08-07T07:49:21;27.50;69.30
32865;DHT22;19219;44.500;11.188;2023-08-07T07:51:46;27.70;67.10
32865;DHT22;19219;44.500;11.188;2023-08-07T07:54:12;27.80;67.00
32865;DHT22;19219;44.500;11.188;2023-08-07T07:56:38;27.90;66.80
32865;DHT22;19219;44.500;11.188;2023-08-07T07:59:03;27.70;65.70
32865;DHT22;19219;44.500;11.188;2023-08-07T08:01:29;28.00;66.10
32865;DHT22;19219;44.500;11.188;2023-08-07T08:03:55;28.20;65.60
32865;DHT22;19219;44.500;11.188;2023-08-07T08:06:20;28.00;66.50
32865;DHT22;19219;44.500;11.188;2023-08-07T08:08:46;27.80;66.30
32865;DHT22;19219;44.500;11.188;2023-08-07T08:11:12;28.10;67.90
32865;DHT22;19219;44.500;11.188;2023-08-07T08:13:38;28.20;66.70
32865;DHT22;19219;44.500;11.188;2023-08-07T08:16:06;28.60;66.70
32865;DHT22;19219;44.500;11.188;2023-08-07T08:18:32;28.60;66.80
32865;DHT22;19219;44.500;11.188;2023-08-07T08:20:58;29.00;64.40
32865;DHT22;19219;44.500;11.188;2023-08-07T08:23:23;28.40;61.90
32865;DHT22;19219;44.500;11.188;2023-08-07T08:25:49;28.00;59.60
32865;DHT22;19219;44.500;11.188;2023-08-07T08:28:15;28.00;59.20
32865;DHT22;19219;44.500;11.188;2023-08-07T08:30:41;27.80;59.30
32865;DHT22;19219;44.500;11.188;2023-08-07T08:33:07;27.60;59.30
32865;DHT22;19219;44.500;11.188;2023-08-07T08:35:36;27.90;59.90
32865;DHT22;19219;44.500;11.188;2023-08-07T08:38:02;28.10;59.20
32865;DHT22;19219;44.500;11.188;2023-08-07T08:40:29;28.00;58.70
32865;DHT22;19219;44.500;11.188;2023-08-07T08:42:55;28.00;57.30
32865;DHT22;19219;44.500;11.188;2023-08-07T08:45:25;28.00;57.30
32865;DHT22;19219;44.500;11.188;2023-08-07T08:47:51;28.20;58.60
32865;DHT22;19219;44.500;11.188;2023-08-07T08:50:19;28.50;56.60
32865;DHT22;19219;44.500;11.188;2023-08-07T08:52:45;28.40;55.90
32865;DHT22;19219;44.500;11.188;2023-08-07T08:55:12;28.30;55.40
32865;DHT22;19219;44.500;11.188;2023-08-07T08:57:39;28.30;56.70
32865;DHT22;19219;44.500;11.188;2023-08-07T09:00:06;28.50;56.00
32865;DHT22;19219;44.500;11.188;2023-08-07T09:02:43;28.70;56.00
32865;DHT22;19219;44.500;11.188;2023-08-07T09:05:08;28.60;54.20
32865;DHT22;19219;44.500;11.188;2023-08-07T09:07:35;28.70;55.50
32865;DHT22;19219;44.500;11.188;2023-08-07T09:10:02;28.90;55.60
32865;DHT22;19219;44.500;11.188;2023-08-07T09:12:29;28.90;54.30
32865;DHT22;19219;44.500;11.188;2023-08-07T09:14:58;28.80;54.40
32865;DHT22;19219;44.500;11.188;2023-08-07T09:17:25;28.60;55.00
32865;DHT22;19219;44.500;11.188;2023-08-07T09:19:53;28.80;55.60
32865;DHT22;19219;44.500;11.188;2023-08-07T09:22:19;29.20;56.30
32865;DHT22;19219;44.500;11.188;2023-08-07T09:24:45;29.10;54.50
32865;DHT22;19219;44.500;11.188;2023-08-07T09:27:12;28.80;52.30
32865;DHT22;19219;44.500;11.188;2023-08-07T09:29:41;28.80;53.10
32865;DHT22;19219;44.500;11.188;2023-08-07T09:32:11;28.90;54.50
32865;DHT22;19219;44.500;11.188;2023-08-07T09:34:39;28.70;53.40
32865;DHT22;19219;44.500;11.188;2023-08-07T09:37:07;28.60;53.80
32865;DHT22;19219;44.500;11.188;2023-08-07T09:39:32;28.40;54.90
32865;DHT22;19219;44.500;11.188;2023-08-07T09:41:58;28.20;53.30
32865;DHT22;19219;44.500;11.188;2023-08-07T09:44:24;28.10;53.90
32865;DHT22;19219;44.500;11.188;2023-08-07T09:46:49;28.00;55.50
32865;DHT22;19219;44.500;11.188;2023-08-07T09:49:15;28.30;56.20
32865;DHT22;19219;44.500;11.188;2023-08-07T09:51:42;28.60;55.90
32865;DHT22;19219;44.500;11.188;2023-08-07T09:54:08;28.60;54.40
32865;DHT22;19219;44.500;11.188;2023-08-07T09:56:35;28.60;54.20
32865;DHT22;19219;44.500;11.188;2023-08-07T09:59:01;28.30;53.80
32865;DHT22;19219;44.500;11.188;2023-08-07T10:01:27;28.60;55.10
32865;DHT22;19219;44.500;11.188;2023-08-07T10:03:53;28.30;54.80
32865;DHT22;19219;44.500;11.188;2023-08-07T10:06:19;28.20;54.10
32865;DHT22;19219;44.500;11.188;2023-08-07T10:08:45;28.30;55.80
32865;DHT22;19219;44.500;11.188;2023-08-07T10:11:11;28.40;49.10
32865;DHT22;19219;44.500;11.188;2023-08-07T10:13:40;28.60;50.00
32865;DHT22;19219;44.500;11.188;2023-08-07T10:16:07;28.70;50.30
32865;DHT22;19219;44.500;11.188;2023-08-07T10:18:33;28.70;47.90
32865;DHT22;19219;44.500;11.188;2023-08-07T10:21:01;29.00;50.90
32865;DHT22;19219;44.500;11.188;2023-08-07T10:23:27;29.10;48.20
32865;DHT22;19219;44.500;11.188;2023-08-07T10:25:55;29.30;46.80
32865;DHT22;19219;44.500;11.188;2023-08-07T10:28:23;29.20;46.90
32865;DHT22;19219;44.500;11.188;2023-08-07T10:30:49;29.20;46.00
32865;DHT22;19219;44.500;11.188;2023-08-07T10:33:15;28.90;46.70
32865;DHT22;19219;44.500;11.188;2023-08-07T10:35:47;29.00;47.50
32865;DHT22;19219;44.500;11.188;2023-08-07T10:38:19;28.90;46.30
32865;DHT22;19219;44.500;11.188;2023-08-07T10:41:14;28.90;47.60
32865;DHT22;19219;44.500;11.188;2023-08-07T10:43:44;28.90;47.90
32865;DHT22;19219;44.500;11.188;2023-08-07T10:46:15;28.80;46.60
32865;DHT22;19219;44.500;11.188;2023-08-07T10:48:43;28.80;46.30
32865;DHT22;19219;44.500;11.188;2023-08-07T10:51:12;28.70;45.70
32865;DHT22;19219;44.500;11.188;2023-08-07T10:53:43;28.50;46.70
32865;DHT22;19219;44.500;11.188;2023-08-07T10:56:19;28.60;45.40
32865;DHT22;19219;44.500;11.188;2023-08-07T10:58:54;28.50;48.20
32865;DHT22;19219;44.500;11.188;2023-08-07T11:04:13;28.70;47.60
32865;DHT22;19219;44.500;11.188;2023-08-07T11:06:40;28.50;45.20
32865;DHT22;19219;44.500;11.188;2023-08-07T11:09:08;28.40;45.70
32865;DHT22;19219;44.500;11.188;2023-08-07T11:11:44;28.30;46.00
32865;DHT22;19219;44.500;11.188;2023-08-07T11:14:17;28.20;45.60
32865;DHT22;19219;44.500;11.188;2023-08-07T11:16:45;28.40;46.70
32865;DHT22;19219;44.500;11.188;2023-08-07T11:19:13;28.50;45.20
32865;DHT22;19219;44.500;11.188;2023-08-07T11:21:40;28.40;46.40
32865;DHT22;19219;44.500;11.188;2023-08-07T11:24:08;28.50;46.90
32865;DHT22;19219;44.500;11.188;2023-08-07T11:26:33;28.60;45.70
32865;DHT22;19219;44.500;11.188;2023-08-07T11:28:59;28.60;42.50
32865;DHT22;19219;44.500;11.188;2023-08-07T11:31:25;28.60;44.40
32865;DHT22;19219;44.500;11.188;2023-08-07T11:33:51;28.60;44.10
32865;DHT22;19219;44.500;11.188;2023-08-07T11:36:18;28.50;46.10
32865;DHT22;19219;44.500;11.188;2023-08-07T11:38:44;28.50;44.70
32865;DHT22;19219;44.500;11.188;2023-08-07T11:41:14;28.60;46.00
32865;DHT22;19219;44.500;11.188;2023-08-07T11:43:40;28.40;43.10
32865;DHT22;19219;44.500;11.188;2023-08-07T11:46:10;28.40;43.40
32865;DHT22;19219;44.500;11.188;2023-08-07T11:48:38;28.30;42.90
32865;DHT22;19219;44.500;11.188;2023-08-07T11:51:05;28.20;43.20
32865;DHT22;19219;44.500;11.188;2023-08-07T11:53:33;28.30;44.20
32865;DHT22;19219;44.500;11.188;2023-08-07T11:56:00;28.40;46.30
32865;DHT22;19219;44.500;11.188;2023-08-07T11:58:33;28.30;44.50
32865;DHT22;19219;44.500;11.188;2023-08-07T12:01:03;28.40;44.50
32865;DHT22;19219;44.500;11.188;2023-08-07T12:03:35;28.40;44.00
32865;DHT22;19219;44.500;11.188;2023-08-07T12:06:05;28.50;44.60
32865;DHT22;19219;44.500;11.188;2023-08-07T12:08:36;28.40;45.20
32865;DHT22;19219;44.500;11.188;2023-08-07T12:11:07;28.30;42.90
32865;DHT22;19219;44.500;11.188;2023-08-07T12:13:43;28.20;42.50
32865;DHT22;19219;44.500;11.188;2023-08-07T12:16:11;28.30;43.90
32865;DHT22;19219;44.500;11.188;2023-08-07T12:18:47;28.40;44.00
32865;DHT22;19219;44.500;11.188;2023-08-07T12:21:18;28.20;43.70
32865;DHT22;19219;44.500;11.188;2023-08-07T12:23:49;28.40;44.30
32865;DHT22;19219;44.500;11.188;2023-08-07T12:26:16;28.30;42.10
32865;DHT22;19219;44.500;11.188;2023-08-07T12:28:42;28.30;40.70
32865;DHT22;19219;44.500;11.188;2023-08-07T12:31:08;28.20;41.80
32865;DHT22;19219;44.500;11.188;2023-08-07T12:33:33;28.10;40.60
32865;DHT22;19219;44.500;11.188;2023-08-07T12:36:00;28.20;41.40
32865;DHT22;19219;44.500;11.188;2023-08-07T12:38:26;28.30;41.40
32865;DHT22;19219;44.500;11.188;2023-08-07T12:40:53;28.40;41.60
32865;DHT22;19219;44.500;11.188;2023-08-07T12:43:19;28.40;39.40
32865;DHT22;19219;44.500;11.188;2023-08-07T12:45:44;28.20;39.30
32865;DHT22;19219;44.500;11.188;2023-08-07T12:48:10;28.10;41.20
32865;DHT22;19219;44.500;11.188;2023-08-07T12:50:36;28.10;39.90
32865;DHT22;19219;44.500;11.188;2023-08-07T12:53:02;28.10;40.20
32865;DHT22;19219;44.500;11.188;2023-08-07T12:55:29;28.20;42.10
32865;DHT22;19219;44.500;11.188;2023-08-07T12:57:55;28.20;41.60
32865;DHT22;19219;44.500;11.188;2023-08-07T13:00:22;28.10;40.00
32865;DHT22;19219;44.500;11.188;2023-08-07T13:02:49;28.10;38.90
32865;DHT22;19219;44.500;11.188;2023-08-07T13:05:16;28.10;40.70
32865;DHT22;19219;44.500;11.188;2023-08-07T13:07:45;28.30;41.20
32865;DHT22;19219;44.500;11.188;2023-08-07T13:10:14;28.40;42.20
32865;DHT22;19219;44.500;11.188;2023-08-07T13:12:41;28.50;41.20
32865;DHT22;19219;44.500;11.188;2023-08-07T13:15:08;28.30;41.80
32865;DHT22;19219;44.500;11.188;2023-08-07T13:17:35;28.20;41.50
32865;DHT22;19219;44.500;11.188;2023-08-07T13:20:02;28.30;40.90
32865;DHT22;19219;44.500;11.188;2023-08-07T13:22:36;28.30;41.00
32865;DHT22;19219;44.500;11.188;2023-08-07T13:25:04;28.20;40.40
32865;DHT22;19219;44.500;11.188;2023-08-07T13:27:30;28.20;39.80
32865;DHT22;19219;44.500;11.188;2023-08-07T13:29:56;28.40;40.30
32865;DHT22;19219;44.500;11.188;2023-08-07T13:32:22;28.40;39.70
32865;DHT22;19219;44.500;11.188;2023-08-07T13:34:47;28.50;39.30
32865;DHT22;19219;44.500;11.188;2023-08-07T13:37:14;28.60;41.60
32865;DHT22;19219;44.500;11.188;2023-08-07T13:39:40;28.70;40.10
32865;DHT22;19219;44.500;11.188;2023-08-07T13:42:06;28.60;41.30
32865;DHT22;19219;44.500;11.188;2023-08-07T13:44:32;28.60;40.40
32865;DHT22;19219;44.500;11.188;2023-08-07T13:46:58;28.50;40.30
32865;DHT22;19219;44.500;11.188;2023-08-07T13:49:24;28.40;39.10
32865;DHT22;19219;44.500;11.188;2023-08-07T13:51:50;28.50;40.20
32865;DHT22;19219;44.500;11.188;2023-08-07T13:54:16;28.60;40.80
32865;DHT22;19219;44.500;11.188;2023-08-07T13:56:41;28.70;41.60
32865;DHT22;19219;44.500;11.188;2023-08-07T13:59:07;28.80;39.60
32865;DHT22;19219;44.500;11.188;2023-08-07T14:01:34;28.80;40.40
32865;DHT22;19219;44.500;11.188;2023-08-07T14:04:01;28.80;39.80
32865;DHT22;19219;44.500;11.188;2023-08-07T14:06:27;28.80;41.40
32865;DHT22;19219;44.500;11.188;2023-08-07T14:08:52;28.80;40.40
32865;DHT22;19219;44.500;11.188;2023-08-07T14:11:18;28.80;40.00
32865;DHT22;19219;44.500;11.188;2023-08-07T14:13:45;28.90;40.60
32865;DHT22;19219;44.500;11.188;2023-08-07T14:16:12;28.90;39.40
32865;DHT22;19219;44.500;11.188;2023-08-07T14:18:37;28.90;39.40
32865;DHT22;19219;44.500;11.188;2023-08-07T14:21:03;28.90;38.30
32865;DHT22;19219;44.500;11.188;2023-08-07T14:23:29;28.90;38.50
32865;DHT22;19219;44.500;11.188;2023-08-07T14:25:55;28.70;38.50
32865;DHT22;19219;44.500;11.188;2023-08-07T14:28:21;28.80;38.80
32865;DHT22;19219;44.500;11.188;2023-08-07T14:30:47;28.80;38.60
32865;DHT22;19219;44.500;11.188;2023-08-07T14:33:13;28.80;38.50
32865;DHT22;19219;44.500;11.188;2023-08-07T14:35:39;28.80;38.20
32865;DHT22;19219;44.500;11.188;2023-08-07T14:38:05;28.90;38.00
32865;DHT22;19219;44.500;11.188;2023-08-07T14:40:30;28.90;38.60
32865;DHT22;19219;44.500;11.188;2023-08-07T14:42:57;29.00;38.30
32865;DHT22;19219;44.500;11.188;2023-08-07T14:45:23;29.00;38.40
32865;DHT22;19219;44.500;11.188;2023-08-07T14:47:49;29.00;39.70
32865;DHT22;19219;44.500;11.188;2023-08-07T14:50:15;29.00;38.20
32865;DHT22;19219;44.500;11.188;2023-08-07T14:52:42;28.90;38.60
32865;DHT22;19219;44.500;11.188;2023-08-07T14:55:08;28.70;38.40
32865;DHT22;19219;44.500;11.188;2023-08-07T14:57:34;28.50;37.20
32865;DHT22;19219;44.500;11.188;2023-08-07T14:59:59;28.50;37.30
32865;DHT22;19219;44.500;11.188;2023-08-07T15:02:25;28.60;37.40
32865;DHT22;19219;44.500;11.188;2023-08-07T15:04:51;28.50;37.30
32865;DHT22;19219;44.500;11.188;2023-08-07T15:07:17;28.40;36.50
32865;DHT22;19219;44.500;11.188;2023-08-07T15:09:43;28.50;37.00
32865;DHT22;19219;44.500;11.188;2023-08-07T15:12:09;28.60;37.30
32865;DHT22;19219;44.500;11.188;2023-08-07T15:14:35;28.60;37.40
32865;DHT22;19219;44.500;11.188;2023-08-07T15:17:01;28.60;38.90
32865;DHT22;19219;44.500;11.188;2023-08-07T15:19:26;28.80;37.50